sensor_id;sensor_type;location;lat;lon;timestamp;temperature;humidity
51867;DHT22;52862;52.504;13.480;2023-01-29T00:01:20;0.40;99.90
51867;DHT22;52862;52.504;13.480;2023-01-29T00:03:49;0.70;99.90
51867;DHT22;52862;52.504;13.480;2023-01-29T00:06:16;0.30;99.90
51867;DHT22;52862;52.504;13.480;2023-01-29T00:08:44;0.00;99.90
51867;DHT22;52862;52.504;13.480;2023-01-29T00:11:11;0.80;99.90
51867;DHT22;52862;52.504;13.480;2023-01-29T00:13:38;-0.30;99.90
51867;DHT22;52862;52.504;13.480;2023-01-29T00:16:05;0.00;99.90
51867;DHT22;52862;52.504;13.480;2023-01-29T00:18:32;0.10;99.90
51867;DHT22;52862;52.504;13.480;2023-01-29T00:25:53;0.80;99.90
51867;DHT22;52862;52.504;13.480;2023-01-29T00:33:14;0.90;99.90
51867;DHT22;52862;52.504;13.480;2023-01-29T00:35:42;0.40;99.90
51867;DHT22;52862;52.504;13.480;2023-01-29T00:40:39;0.50;99.90
51867;DHT22;52862;52.504;13.480;2023-01-29T00:43:25;0.50;99.90
51867;DHT22;52862;52.504;13.480;2023-01-29T00:46:10;0.40;99.90
51867;DHT22;52862;52.504;13.480;2023-01-29T00:48:37;0.30;99.90
51867;DHT22;52862;52.504;13.480;2023-01-29T00:53:30;0.40;99.90
51867;DHT22;52862;52.504;13.480;2023-01-29T00:58:25;0.40;99.90
51867;DHT22;52862;52.504;13.480;2023-01-29T01:00:54;0.50;99.90
51867;DHT22;52862;52.504;13.480;2023-01-29T01:08:15;0.90;99.90
51867;DHT22;52862;52.504;13.480;2023-01-29T01:11:02;0.40;99.90
51867;DHT22;52862;52.504;13.480;2023-01-29T01:13:32;0.70;99.90
51867;DHT22;52862;52.504;13.480;2023-01-29T01:15:59;0.10;99.90
51867;DHT22;52862;52.504;13.480;2023-01-29T01:18:29;0.40;99.90
51867;DHT22;52862;52.504;13.480;2023-01-29T01:20:56;0.60;99.90
51867;DHT22;52862;52.504;13.480;2023-01-29T01:23:24;0.30;99.90
51867;DHT22;52862;52.504;13.480;2023-01-29T01:28:18;0.50;99.90
51867;DHT22;52862;52.504;13.480;2023-01-29T01:30:45;0.50;99.90
51867;DHT22;52862;52.504;13.480;2023-01-29T01:33:12;0.50;99.90
51867;DHT22;52862;52.504;13.480;2023-01-29T01:35:41;0.30;99.90
51867;DHT22;52862;52.504;13.480;2023-01-29T01:38:11;0.50;99.90
51867;DHT22;52862;52.504;13.480;2023-01-29T01:40:44;0.30;99.90
51867;DHT22;52862;52.504;13.480;2023-01-29T01:43:14;0.60;99.90
51867;DHT22;52862;52.504;13.480;2023-01-29T01:48:14;0.70;99.90
51867;DHT22;52862;52.504;13.480;2023-01-29T01:50:45;0.40;99.90
51867;DHT22;52862;52.504;13.480;2023-01-29T01:53:19;0.60;99.90
51867;DHT22;52862;52.504;13.480;2023-01-29T01:55:49;1.00;99.90
51867;DHT22;52862;52.504;13.480;2023-01-29T01:58:21;0.70;99.90
51867;DHT22;52862;52.504;13.480;2023-01-29T02:00:49;0.80;99.90
51867;DHT22;52862;52.504;13.480;2023-01-29T02:03:19;0.70;99.90
51867;DHT22;52862;52.504;13.480;2023-01-29T02:08:53;0.60;99.90
51867;DHT22;52862;52.504;13.480;2023-01-29T02:16:34;0.90;99.90
51867;DHT22;52862;52.504;13.480;2023-01-29T02:19:03;0.40;99.90
51867;DHT22;52862;52.504;13.480;2023-01-29T02:22:05;0.90;99.90
51867;DHT22;52862;52.504;13.480;2023-01-29T02:25:07;0.50;99.90
51867;DHT22;52862;52.504;13.480;2023-01-29T02:28:06;0.80;99.90
51867;DHT22;52862;52.504;13.480;2023-01-29T02:30:42;0.60;99.90
51867;DHT22;52862;52.504;13.480;2023-01-29T02:33:16;0.70;99.90
51867;DHT22;52862;52.504;13.480;2023-01-29T02:35:55;0.70;99.90
51867;DHT22;52862;52.504;13.480;2023-01-29T02:38:28;0.80;99.90
51867;DHT22;52862;52.504;13.480;2023-01-29T02:40:59;0.50;99.90
51867;DHT22;52862;52.504;13.480;2023-01-29T02:43:32;0.80;99.90
51867;DHT22;52862;52.504;13.480;2023-01-29T02:46:14;0.90;99.90
51867;DHT22;52862;52.504;13.480;2023-01-29T02:48:53;0.90;99.90
51867;DHT22;52862;52.504;13.480;2023-01-29T02:51:30;0.70;99.90
51867;DHT22;52862;52.504;13.480;2023-01-29T02:54:03;0.80;99.90
51867;DHT22;52862;52.504;13.480;2023-01-29T02:56:37;0.40;99.90
51867;DHT22;52862;52.504;13.480;2023-01-29T02:59:08;0.40;99.90
51867;DHT22;52862;52.504;13.480;2023-01-29T03:01:41;0.70;99.90
51867;DHT22;52862;52.504;13.480;2023-01-29T03:04:13;0.60;99.90
51867;DHT22;52862;52.504;13.480;2023-01-29T03:06:44;0.60;99.90
51867;DHT22;52862;52.504;13.480;2023-01-29T03:09:21;0.60;99.90
51867;DHT22;52862;52.504;13.480;2023-01-29T03:11:51;0.80;99.90
51867;DHT22;52862;52.504;13.480;2023-01-29T03:14:23;0.50;99.90
51867;DHT22;52862;52.504;13.480;2023-01-29T03:16:52;0.70;99.90
51867;DHT22;52862;52.504;13.480;2023-01-29T03:19:24;1.00;99.90
51867;DHT22;52862;52.504;13.480;2023-01-29T03:21:56;0.70;99.90
51867;DHT22;52862;52.504;13.480;2023-01-29T03:24:34;0.70;99.90
51867;DHT22;52862;52.504;13.480;2023-01-29T03:27:23;0.60;99.90
51867;DHT22;52862;52.504;13.480;2023-01-29T03:30:12;0.30;99.90
51867;DHT22;52862;52.504;13.480;2023-01-29T03:33:04;0.80;99.90
51867;DHT22;52862;52.504;13.480;2023-01-29T03:35:35;0.50;99.90
51867;DHT22;52862;52.504;13.480;2023-01-29T03:38:03;0.00;99.90
51867;DHT22;52862;52.504;13.480;2023-01-29T03:40:37;0.70;99.90
51867;DHT22;52862;52.504;13.480;2023-01-29T03:43:12;0.90;99.90
51867;DHT22;52862;52.504;13.480;2023-01-29T03:45:48;0.80;99.90
51867;DHT22;52862;52.504;13.480;2023-01-29T03:48:24;0.90;99.90
51867;DHT22;52862;52.504;13.480;2023-01-29T03:50:58;0.90;99.90
51867;DHT22;52862;52.504;13.480;2023-01-29T03:53:30;0.20;99.90
51867;DHT22;52862;52.504;13.480;2023-01-29T03:56:05;0.90;99.90
51867;DHT22;52862;52.504;13.480;2023-01-29T03:58:36;0.80;99.90
51867;DHT22;52862;52.504;13.480;2023-01-29T04:01:12;0.80;99.90
51867;DHT22;52862;52.504;13.480;2023-01-29T04:03:42;0.90;99.90
51867;DHT22;52862;52.504;13.480;2023-01-29T04:06:15;0.90;99.90
51867;DHT22;52862;52.504;13.480;2023-01-29T04:08:47;0.60;99.90
51867;DHT22;52862;52.504;13.480;2023-01-29T04:11:18;0.80;99.90
51867;DHT22;52862;52.504;13.480;2023-01-29T04:16:17;0.90;99.90
51867;DHT22;52862;52.504;13.480;2023-01-29T04:18:46;0.60;99.90
51867;DHT22;52862;52.504;13.480;2023-01-29T04:21:13;0.10;99.90
51867;DHT22;52862;52.504;13.480;2023-01-29T04:23:41;0.80;99.90
51867;DHT22;52862;52.504;13.480;2023-01-29T04:26:23;0.80;99.90
51867;DHT22;52862;52.504;13.480;2023-01-29T04:29:03;0.80;99.90
51867;DHT22;52862;52.504;13.480;2023-01-29T04:31:37;0.80;99.90
51867;DHT22;52862;52.504;13.480;2023-01-29T04:34:15;0.70;99.90
51867;DHT22;52862;52.504;13.480;2023-01-29T04:36:56;0.70;99.90
51867;DHT22;52862;52.504;13.480;2023-01-29T04:39:30;0.60;99.90
51867;DHT22;52862;52.504;13.480;2023-01-29T04:42:04;0.60;99.90
51867;DHT22;52862;52.504;13.480;2023-01-29T04:44:38;0.70;99.90
51867;DHT22;52862;52.504;13.480;2023-01-29T04:47:16;0.60;99.90
51867;DHT22;52862;52.504;13.480;2023-01-29T04:49:46;0.50;99.90
51867;DHT22;52862;52.504;13.480;2023-01-29T04:52:18;0.60;99.90
51867;DHT22;52862;52.504;13.480;2023-01-29T04:54:53;0.60;99.90
51867;DHT22;52862;52.504;13.480;2023-01-29T04:57:27;0.60;99.90
51867;DHT22;52862;52.504;13.480;2023-01-29T05:00:02;0.50;99.90
51867;DHT22;52862;52.504;13.480;2023-01-29T05:02:36;1.20;99.90
51867;DHT22;52862;52.504;13.480;2023-01-29T05:05:04;1.20;99.90
51867;DHT22;52862;52.504;13.480;2023-01-29T05:07:33;0.60;99.90
51867;DHT22;52862;52.504;13.480;2023-01-29T05:10:02;0.60;99.90
51867;DHT22;52862;52.504;13.480;2023-01-29T05:12:29;0.50;99.90
51867;DHT22;52862;52.504;13.480;2023-01-29T05:15:01;0.20;99.90
51867;DHT22;52862;52.504;13.480;2023-01-29T05:17:28;0.60;99.90
51867;DHT22;52862;52.504;13.480;2023-01-29T05:19:56;0.70;99.90
51867;DHT22;52862;52.504;13.480;2023-01-29T05:22:23;0.60;99.90
51867;DHT22;52862;52.504;13.480;2023-01-29T05:24:50;-1.40;99.90
51867;DHT22;52862;52.504;13.480;2023-01-29T05:27:20;0.60;99.90
51867;DHT22;52862;52.504;13.480;2023-01-29T05:30:07;0.10;99.90
51867;DHT22;52862;52.504;13.480;2023-01-29T05:35:03;0.60;99.90
51867;DHT22;52862;52.504;13.480;2023-01-29T05:37:30;0.40;99.90
51867;DHT22;52862;52.504;13.480;2023-01-29T05:39:57;0.80;99.90
51867;DHT22;52862;52.504;13.480;2023-01-29T05:44:51;0.60;99.90
51867;DHT22;52862;52.504;13.480;2023-01-29T05:47:18;0.60;99.90
51867;DHT22;52862;52.504;13.480;2023-01-29T05:52:12;0.40;99.90
51867;DHT22;52862;52.504;13.480;2023-01-29T05:54:39;0.60;99.90
51867;DHT22;52862;52.504;13.480;2023-01-29T05:57:05;0.70;99.90
51867;DHT22;52862;52.504;13.480;2023-01-29T05:59:32;0.90;99.90
51867;DHT22;52862;52.504;13.480;2023-01-29T06:09:20;0.70;99.90
51867;DHT22;52862;52.504;13.480;2023-01-29T06:14:14;0.80;99.90
51867;DHT22;52862;52.504;13.480;2023-01-29T06:16:41;1.40;99.90
51867;DHT22;52862;52.504;13.480;2023-01-29T06:19:07;1.10;99.90
51867;DHT22;52862;52.504;13.480;2023-01-29T06:21:34;1.00;99.90
51867;DHT22;52862;52.504;13.480;2023-01-29T06:24:01;0.90;99.90
51867;DHT22;52862;52.504;13.480;2023-01-29T06:26:28;0.80;99.90
51867;DHT22;52862;52.504;13.480;2023-01-29T06:31:22;0.50;99.90
51867;DHT22;52862;52.504;13.480;2023-01-29T06:34:03;0.80;99.90
51867;DHT22;52862;52.504;13.480;2023-01-29T06:38:57;0.90;99.90
51867;DHT22;52862;52.504;13.480;2023-01-29T06:41:23;1.10;99.90
51867;DHT22;52862;52.504;13.480;2023-01-29T06:43:51;0.90;99.90
51867;DHT22;52862;52.504;13.480;2023-01-29T06:46:17;0.70;99.90
51867;DHT22;52862;52.504;13.480;2023-01-29T06:51:11;0.60;99.90
51867;DHT22;52862;52.504;13.480;2023-01-29T06:53:38;1.20;99.90
51867;DHT22;52862;52.504;13.480;2023-01-29T06:56:06;1.00;99.90
51867;DHT22;52862;52.504;13.480;2023-01-29T06:58:35;0.60;99.90
51867;DHT22;52862;52.504;13.480;2023-01-29T07:01:04;1.00;99.90
51867;DHT22;52862;52.504;13.480;2023-01-29T07:03:31;0.80;99.90
51867;DHT22;52862;52.504;13.480;2023-01-29T07:08:25;1.00;99.90
51867;DHT22;52862;52.504;13.480;2023-01-29T07:10:51;1.20;99.90
51867;DHT22;52862;52.504;13.480;2023-01-29T07:13:18;0.90;99.90
51867;DHT22;52862;52.504;13.480;2023-01-29T07:15:44;1.20;99.90
51867;DHT22;52862;52.504;13.480;2023-01-29T07:18:12;1.20;99.90
51867;DHT22;52862;52.504;13.480;2023-01-29T07:20:40;1.10;99.90
51867;DHT22;52862;52.504;13.480;2023-01-29T07:23:08;1.10;99.90
51867;DHT22;52862;52.504;13.480;2023-01-29T07:25:36;1.30;99.90
51867;DHT22;52862;52.504;13.480;2023-01-29T07:28:03;1.00;99.90
51867;DHT22;52862;52.504;13.480;2023-01-29T07:30:30;1.20;99.90
51867;DHT22;52862;52.504;13.480;2023-01-29T07:33:00;1.30;99.90
51867;DHT22;52862;52.504;13.480;2023-01-29T07:35:28;1.10;99.90
51867;DHT22;52862;52.504;13.480;2023-01-29T07:42:48;1.00;99.90
51867;DHT22;52862;52.504;13.480;2023-01-29T07:45:15;1.10;99.90
51867;DHT22;52862;52.504;13.480;2023-01-29T07:47:42;1.40;99.90
51867;DHT22;52862;52.504;13.480;2023-01-29T07:50:10;1.20;99.90
51867;DHT22;52862;52.504;13.480;2023-01-29T07:52:37;1.00;99.90
51867;DHT22;52862;52.504;13.480;2023-01-29T07:55:04;0.90;99.90
51867;DHT22;52862;52.504;13.480;2023-01-29T07:59:58;1.00;99.90
51867;DHT22;52862;52.504;13.480;2023-01-29T08:07:19;1.20;99.90
51867;DHT22;52862;52.504;13.480;2023-01-29T08:09:46;1.30;99.90
51867;DHT22;52862;52.504;13.480;2023-01-29T08:12:14;1.30;99.90
51867;DHT22;52862;52.504;13.480;2023-01-29T08:14:40;1.40;99.90
51867;DHT22;52862;52.504;13.480;2023-01-29T08:17:07;1.00;99.90
51867;DHT22;52862;52.504;13.480;2023-01-29T08:19:39;1.40;99.90
51867;DHT22;52862;52.504;13.480;2023-01-29T08:22:05;1.10;99.90
51867;DHT22;52862;52.504;13.480;2023-01-29T08:27:20;1.40;99.90
51867;DHT22;52862;52.504;13.480;2023-01-29T08:29:46;1.10;99.90
51867;DHT22;52862;52.504;13.480;2023-01-29T08:32:13;1.50;99.90
51867;DHT22;52862;52.504;13.480;2023-01-29T08:34:40;1.30;99.90
51867;DHT22;52862;52.504;13.480;2023-01-29T08:37:07;1.30;99.90
51867;DHT22;52862;52.504;13.480;2023-01-29T08:44:28;1.40;99.90
51867;DHT22;52862;52.504;13.480;2023-01-29T08:46:56;1.30;99.90
51867;DHT22;52862;52.504;13.480;2023-01-29T08:49:23;1.40;99.90
51867;DHT22;52862;52.504;13.480;2023-01-29T08:51:50;1.20;99.90
51867;DHT22;52862;52.504;13.480;2023-01-29T08:54:16;2.20;99.90
51867;DHT22;52862;52.504;13.480;2023-01-29T08:56:43;1.30;99.90
51867;DHT22;52862;52.504;13.480;2023-01-29T09:01:38;1.40;99.90
51867;DHT22;52862;52.504;13.480;2023-01-29T09:04:05;2.20;99.90
51867;DHT22;52862;52.504;13.480;2023-01-29T09:06:32;1.30;99.90
51867;DHT22;52862;52.504;13.480;2023-01-29T09:08:59;1.60;99.90
51867;DHT22;52862;52.504;13.480;2023-01-29T09:16:19;1.60;99.90
51867;DHT22;52862;52.504;13.480;2023-01-29T09:18:47;1.60;99.90
51867;DHT22;52862;52.504;13.480;2023-01-29T09:21:14;1.60;99.90
51867;DHT22;52862;52.504;13.480;2023-01-29T09:26:07;1.60;99.90
51867;DHT22;52862;52.504;13.480;2023-01-29T09:28:34;1.60;99.90
51867;DHT22;52862;52.504;13.480;2023-01-29T09:31:01;1.70;99.90
51867;DHT22;52862;52.504;13.480;2023-01-29T09:33:29;1.80;99.90
51867;DHT22;52862;52.504;13.480;2023-01-29T09:35:57;1.80;99.90
51867;DHT22;52862;52.504;13.480;2023-01-29T09:38:23;2.60;99.90
51867;DHT22;52862;52.504;13.480;2023-01-29T09:40:56;1.70;99.90
51867;DHT22;52862;52.504;13.480;2023-01-29T09:43:26;1.90;99.90
51867;DHT22;52862;52.504;13.480;2023-01-29T09:45:59;2.50;99.90
51867;DHT22;52862;52.504;13.480;2023-01-29T09:48:30;2.20;99.90
51867;DHT22;52862;52.504;13.480;2023-01-29T09:51:02;2.10;99.90
51867;DHT22;52862;52.504;13.480;2023-01-29T09:53:37;2.60;99.90
51867;DHT22;52862;52.504;13.480;2023-01-29T09:56:09;2.30;99.90
51867;DHT22;52862;52.504;13.480;2023-01-29T09:58:40;2.20;99.90
51867;DHT22;52862;52.504;13.480;2023-01-29T10:01:12;2.80;99.90
51867;DHT22;52862;52.504;13.480;2023-01-29T10:03:59;2.10;99.90
51867;DHT22;52862;52.504;13.480;2023-01-29T10:06:47;2.20;99.90
51867;DHT22;52862;52.504;13.480;2023-01-29T10:09:44;2.30;99.90
51867;DHT22;52862;52.504;13.480;2023-01-29T10:12:38;2.30;99.90
51867;DHT22;52862;52.504;13.480;2023-01-29T10:15:18;2.50;99.90
51867;DHT22;52862;52.504;13.480;2023-01-29T10:17:59;3.00;99.90
51867;DHT22;52862;52.504;13.480;2023-01-29T10:20:50;2.50;99.90
51867;DHT22;52862;52.504;13.480;2023-01-29T10:23:22;2.70;99.90
51867;DHT22;52862;52.504;13.480;2023-01-29T10:25:51;2.40;99.90
51867;DHT22;52862;52.504;13.480;2023-01-29T10:28:20;3.30;99.90
51867;DHT22;52862;52.504;13.480;2023-01-29T10:30:50;2.70;99.90
51867;DHT22;52862;52.504;13.480;2023-01-29T10:33:25;2.90;99.90
51867;DHT22;52862;52.504;13.480;2023-01-29T10:36:03;3.10;99.90
51867;DHT22;52862;52.504;13.480;2023-01-29T10:38:42;3.00;99.90
51867;DHT22;52862;52.504;13.480;2023-01-29T10:41:20;3.20;99.90
51867;DHT22;52862;52.504;13.480;2023-01-29T10:44:00;3.30;99.90
51867;DHT22;52862;52.504;13.480;2023-01-29T10:46:41;2.80;99.90
51867;DHT22;52862;52.504;13.480;2023-01-29T10:49:20;3.00;99.90
51867;DHT22;52862;52.504;13.480;2023-01-29T10:52:03;3.00;99.90
51867;DHT22;52862;52.504;13.480;2023-01-29T10:54:47;2.60;99.90
51867;DHT22;52862;52.504;13.480;2023-01-29T10:57:22;3.30;99.90
51867;DHT22;52862;52.504;13.480;2023-01-29T11:00:01;3.20;99.90
51867;DHT22;52862;52.504;13.480;2023-01-29T11:02:32;3.00;99.90
51867;DHT22;52862;52.504;13.480;2023-01-29T11:04:59;3.20;99.90
51867;DHT22;52862;52.504;13.480;2023-01-29T11:07:26;2.10;99.90
51867;DHT22;52862;52.504;13.480;2023-01-29T11:09:59;3.30;99.90
51867;DHT22;52862;52.504;13.480;2023-01-29T11:12:29;3.40;99.90
51867;DHT22;52862;52.504;13.480;2023-01-29T11:15:00;3.90;99.90
51867;DHT22;52862;52.504;13.480;2023-01-29T11:17:28;3.80;99.90
51867;DHT22;52862;52.504;13.480;2023-01-29T11:19:55;3.40;99.90
51867;DHT22;52862;52.504;13.480;2023-01-29T11:22:22;3.50;99.90
51867;DHT22;52862;52.504;13.480;2023-01-29T11:25:09;3.60;99.90
51867;DHT22;52862;52.504;13.480;2023-01-29T11:27:42;3.70;99.90
51867;DHT22;52862;52.504;13.480;2023-01-29T11:30:16;3.70;99.90
51867;DHT22;52862;52.504;13.480;2023-01-29T11:32:49;3.90;99.90
51867;DHT22;52862;52.504;13.480;2023-01-29T11:35:22;4.00;99.90
51867;DHT22;52862;52.504;13.480;2023-01-29T11:37:49;3.60;99.90
51867;DHT22;52862;52.504;13.480;2023-01-29T11:40:34;4.20;99.90
51867;DHT22;52862;52.504;13.480;2023-01-29T11:43:15;4.10;99.90
51867;DHT22;52862;52.504;13.480;2023-01-29T11:45:43;3.90;99.90
51867;DHT22;52862;52.504;13.480;2023-01-29T11:48:14;3.80;99.90
51867;DHT22;52862;52.504;13.480;2023-01-29T11:50:41;3.60;99.90
51867;DHT22;52862;52.504;13.480;2023-01-29T11:53:32;3.60;99.90
51867;DHT22;52862;52.504;13.480;2023-01-29T11:56:01;3.50;99.90
51867;DHT22;52862;52.504;13.480;2023-01-29T11:58:31;4.00;99.90
51867;DHT22;52862;52.504;13.480;2023-01-29T12:00:58;4.00;99.90
51867;DHT22;52862;52.504;13.480;2023-01-29T12:03:32;3.80;99.90
51867;DHT22;52862;52.504;13.480;2023-01-29T12:06:02;3.30;99.90
51867;DHT22;52862;52.504;13.480;2023-01-29T12:08:34;3.90;99.90
51867;DHT22;52862;52.504;13.480;2023-01-29T12:11:10;3.90;99.90
51867;DHT22;52862;52.504;13.480;2023-01-29T12:13:38;3.90;99.90
51867;DHT22;52862;52.504;13.480;2023-01-29T12:16:19;4.50;99.90
51867;DHT22;52862;52.504;13.480;2023-01-29T12:18:51;3.80;99.90
51867;DHT22;52862;52.504;13.480;2023-01-29T12:21:27;3.90;99.90
51867;DHT22;52862;52.504;13.480;2023-01-29T12:23:59;4.10;99.90
51867;DHT22;52862;52.504;13.480;2023-01-29T12:26:31;4.10;99.90
51867;DHT22;52862;52.504;13.480;2023-01-29T12:29:14;4.10;99.90
51867;DHT22;52862;52.504;13.480;2023-01-29T12:31:47;4.30;99.90
51867;DHT22;52862;52.504;13.480;2023-01-29T12:34:18;4.10;99.90
51867;DHT22;52862;52.504;13.480;2023-01-29T12:36:49;3.90;99.90
51867;DHT22;52862;52.504;13.480;2023-01-29T12:39:19;3.80;99.90
51867;DHT22;52862;52.504;13.480;2023-01-29T12:41:50;4.00;99.90
51867;DHT22;52862;52.504;13.480;2023-01-29T12:44:21;4.20;99.90
51867;DHT22;52862;52.504;13.480;2023-01-29T12:46:52;4.10;99.90
51867;DHT22;52862;52.504;13.480;2023-01-29T12:49:23;3.60;99.90
51867;DHT22;52862;52.504;13.480;2023-01-29T12:51:55;4.10;99.90
51867;DHT22;52862;52.504;13.480;2023-01-29T12:54:30;3.90;99.90
51867;DHT22;52862;52.504;13.480;2023-01-29T12:57:03;3.90;99.90
51867;DHT22;52862;52.504;13.480;2023-01-29T12:59:38;3.90;99.90
51867;DHT22;52862;52.504;13.480;2023-01-29T13:02:17;3.60;99.90
51867;DHT22;52862;52.504;13.480;2023-01-29T13:04:47;4.00;99.90
51867;DHT22;52862;52.504;13.480;2023-01-29T13:07:19;3.60;99.90
51867;DHT22;52862;52.504;13.480;2023-01-29T13:09:51;3.30;99.90
51867;DHT22;52862;52.504;13.480;2023-01-29T13:12:21;3.70;99.90
51867;DHT22;52862;52.504;13.480;2023-01-29T13:14:52;4.00;99.90
51867;DHT22;52862;52.504;13.480;2023-01-29T13:17:23;4.00;99.90
51867;DHT22;52862;52.504;13.480;2023-01-29T13:19:53;4.00;99.90
51867;DHT22;52862;52.504;13.480;2023-01-29T13:22:24;4.40;99.90
51867;DHT22;52862;52.504;13.480;2023-01-29T13:24:51;4.00;99.90
51867;DHT22;52862;52.504;13.480;2023-01-29T13:27:32;3.60;99.90
51867;DHT22;52862;52.504;13.480;2023-01-29T13:30:00;3.70;99.90
51867;DHT22;52862;52.504;13.480;2023-01-29T13:32:28;4.00;99.90
51867;DHT22;52862;52.504;13.480;2023-01-29T13:34:58;4.10;99.90
51867;DHT22;52862;52.504;13.480;2023-01-29T13:37:31;3.90;99.90
51867;DHT22;52862;52.504;13.480;2023-01-29T13:39:59;3.70;99.90
51867;DHT22;52862;52.504;13.480;2023-01-29T13:42:38;3.90;99.90
51867;DHT22;52862;52.504;13.480;2023-01-29T13:45:07;4.10;99.90
51867;DHT22;52862;52.504;13.480;2023-01-29T13:47:36;4.00;99.90
51867;DHT22;52862;52.504;13.480;2023-01-29T13:50:05;3.80;99.90
51867;DHT22;52862;52.504;13.480;2023-01-29T13:52:36;4.10;99.90
51867;DHT22;52862;52.504;13.480;2023-01-29T13:55:08;3.90;99.90
51867;DHT22;52862;52.504;13.480;2023-01-29T13:57:52;3.10;99.90
51867;DHT22;52862;52.504;13.480;2023-01-29T14:00:54;3.70;99.90
51867;DHT22;52862;52.504;13.480;2023-01-29T14:06:43;3.60;99.90
51867;DHT22;52862;52.504;13.480;2023-01-29T14:09:33;3.80;99.90
51867;DHT22;52862;52.504;13.480;2023-01-29T14:12:00;3.50;99.90
51867;DHT22;52862;52.504;13.480;2023-01-29T14:14:49;3.50;99.90
51867;DHT22;52862;52.504;13.480;2023-01-29T14:17:17;3.30;99.90
51867;DHT22;52862;52.504;13.480;2023-01-29T14:19:47;3.50;99.90
51867;DHT22;52862;52.504;13.480;2023-01-29T14:22:19;3.20;99.90
51867;DHT22;52862;52.504;13.480;2023-01-29T14:24:47;3.40;99.90
51867;DHT22;52862;52.504;13.480;2023-01-29T14:27:19;3.60;99.90
51867;DHT22;52862;52.504;13.480;2023-01-29T14:29:47;3.40;99.90
51867;DHT22;52862;52.504;13.480;2023-01-29T14:32:19;3.10;99.90
51867;DHT22;52862;52.504;13.480;2023-01-29T14:34:49;3.00;99.90
51867;DHT22;52862;52.504;13.480;2023-01-29T14:37:21;3.00;99.90
51867;DHT22;52862;52.504;13.480;2023-01-29T14:39:52;2.90;99.90
51867;DHT22;52862;52.504;13.480;2023-01-29T14:42:23;3.10;99.90
51867;DHT22;52862;52.504;13.480;2023-01-29T14:45:00;3.00;99.90
51867;DHT22;52862;52.504;13.480;2023-01-29T14:47:52;2.90;99.90
51867;DHT22;52862;52.504;13.480;2023-01-29T14:50:46;3.40;99.90
51867;DHT22;52862;52.504;13.480;2023-01-29T14:53:21;3.00;99.90
51867;DHT22;52862;52.504;13.480;2023-01-29T14:55:53;3.00;99.90
51867;DHT22;52862;52.504;13.480;2023-01-29T14:58:25;3.10;99.90
51867;DHT22;52862;52.504;13.480;2023-01-29T15:00:54;3.20;99.90
51867;DHT22;52862;52.504;13.480;2023-01-29T15:03:29;3.00;99.90
51867;DHT22;52862;52.504;13.480;2023-01-29T15:05:59;2.80;99.90
51867;DHT22;52862;52.504;13.480;2023-01-29T15:08:28;2.90;99.90
51867;DHT22;52862;52.504;13.480;2023-01-29T15:11:02;2.90;99.90
51867;DHT22;52862;52.504;13.480;2023-01-29T15:13:54;2.90;99.90
51867;DHT22;52862;52.504;13.480;2023-01-29T15:16:24;2.90;99.90
51867;DHT22;52862;52.504;13.480;2023-01-29T15:18:55;2.60;99.90
51867;DHT22;52862;52.504;13.480;2023-01-29T15:21:30;2.70;99.90
51867;DHT22;52862;52.504;13.480;2023-01-29T15:24:03;2.70;99.90
51867;DHT22;52862;52.504;13.480;2023-01-29T15:28:59;3.00;99.90
51867;DHT22;52862;52.504;13.480;2023-01-29T15:31:31;2.70;99.90
51867;DHT22;52862;52.504;13.480;2023-01-29T15:34:03;2.90;99.90
51867;DHT22;52862;52.504;13.480;2023-01-29T15:36:32;2.50;99.90
51867;DHT22;52862;52.504;13.480;2023-01-29T15:39:15;2.60;99.90
51867;DHT22;52862;52.504;13.480;2023-01-29T15:44:12;3.30;99.90
51867;DHT22;52862;52.504;13.480;2023-01-29T15:46:43;2.70;99.90
51867;DHT22;52862;52.504;13.480;2023-01-29T15:49:16;1.90;99.90
51867;DHT22;52862;52.504;13.480;2023-01-29T15:51:45;2.90;99.90
51867;DHT22;52862;52.504;13.480;2023-01-29T15:54:14;2.70;99.90
51867;DHT22;52862;52.504;13.480;2023-01-29T15:56:44;2.70;99.90
51867;DHT22;52862;52.504;13.480;2023-01-29T15:59:17;2.40;99.90
51867;DHT22;52862;52.504;13.480;2023-01-29T16:04:14;2.80;99.90
51867;DHT22;52862;52.504;13.480;2023-01-29T16:06:43;2.70;99.90
51867;DHT22;52862;52.504;13.480;2023-01-29T16:09:16;2.90;99.90
51867;DHT22;52862;52.504;13.480;2023-01-29T16:11:44;2.60;99.90
51867;DHT22;52862;52.504;13.480;2023-01-29T16:14:13;2.90;99.90
51867;DHT22;52862;52.504;13.480;2023-01-29T16:16:42;2.50;99.90
51867;DHT22;52862;52.504;13.480;2023-01-29T16:19:19;2.60;99.90
51867;DHT22;52862;52.504;13.480;2023-01-29T16:21:52;2.80;99.90
51867;DHT22;52862;52.504;13.480;2023-01-29T16:24:21;2.50;99.90
51867;DHT22;52862;52.504;13.480;2023-01-29T16:26:51;2.50;99.90
51867;DHT22;52862;52.504;13.480;2023-01-29T16:29:23;2.70;99.90
51867;DHT22;52862;52.504;13.480;2023-01-29T16:31:55;3.10;99.90
51867;DHT22;52862;52.504;13.480;2023-01-29T16:34:29;2.60;99.90
51867;DHT22;52862;52.504;13.480;2023-01-29T16:36:59;2.90;99.90
51867;DHT22;52862;52.504;13.480;2023-01-29T16:39:29;2.20;99.90
51867;DHT22;52862;52.504;13.480;2023-01-29T16:42:24;2.60;99.90
51867;DHT22;52862;52.504;13.480;2023-01-29T16:44:54;2.80;99.90
51867;DHT22;52862;52.504;13.480;2023-01-29T16:47:32;2.70;99.90
51867;DHT22;52862;52.504;13.480;2023-01-29T16:50:02;2.80;99.90
51867;DHT22;52862;52.504;13.480;2023-01-29T16:52:30;2.70;99.90
51867;DHT22;52862;52.504;13.480;2023-01-29T16:55:13;2.60;99.90
51867;DHT22;52862;52.504;13.480;2023-01-29T16:57:43;2.60;99.90
51867;DHT22;52862;52.504;13.480;2023-01-29T17:00:19;2.80;99.90
51867;DHT22;52862;52.504;13.480;2023-01-29T17:02:50;2.70;99.90
51867;DHT22;52862;52.504;13.480;2023-01-29T17:05:20;3.10;99.90
51867;DHT22;52862;52.504;13.480;2023-01-29T17:07:48;2.60;99.90
51867;DHT22;52862;52.504;13.480;2023-01-29T17:10:17;2.70;99.90
51867;DHT22;52862;52.504;13.480;2023-01-29T17:12:52;3.20;99.90
51867;DHT22;52862;52.504;13.480;2023-01-29T17:15:34;2.80;99.90
51867;DHT22;52862;52.504;13.480;2023-01-29T17:18:01;2.00;99.90
51867;DHT22;52862;52.504;13.480;2023-01-29T17:20:30;2.50;99.90
51867;DHT22;52862;52.504;13.480;2023-01-29T17:22:57;2.80;99.90
51867;DHT22;52862;52.504;13.480;2023-01-29T17:25:23;2.60;99.90
51867;DHT22;52862;52.504;13.480;2023-01-29T17:30:18;2.40;99.90
51867;DHT22;52862;52.504;13.480;2023-01-29T17:32:46;2.70;99.90
51867;DHT22;52862;52.504;13.480;2023-01-29T17:35:14;1.80;99.90
51867;DHT22;52862;52.504;13.480;2023-01-29T17:37:43;2.70;99.90
51867;DHT22;52862;52.504;13.480;2023-01-29T17:40:23;2.30;99.90
51867;DHT22;52862;52.504;13.480;2023-01-29T17:42:52;2.50;99.90
51867;DHT22;52862;52.504;13.480;2023-01-29T17:45:19;2.70;99.90
51867;DHT22;52862;52.504;13.480;2023-01-29T17:47:46;2.40;99.90